Time;durP1;ratioP1;P1;durP2;ratioP2;P2;SDS_P1;SDS_P2;PMS_P1;PMS_P2;Temp;Humidity;BMP_temperature;BMP_pressure;BME280_temperature;BME280_humidity;BME280_pressure;Samples;Min_cycle;Max_cycle;Signal;HPM_P1;HPM_P2
2022/05/26 00:01:49;;;;;;;2.30;2.20;;;15.30;56.20;;;;;;5176490;28;20187;-50
2022/05/26 00:04:20;;;;;;;1.70;1.60;;;15.30;56.40;;;;;;5193887;28;20539;-49
2022/05/26 00:06:52;;;;;;;2.07;1.97;;;15.30;56.60;;;;;;5200023;28;20291;-49
2022/05/26 00:09:23;;;;;;;1.80;1.70;;;15.30;56.70;;;;;;5200916;28;20524;-49
2022/05/26 00:11:54;;;;;;;3.73;2.30;;;15.40;56.50;;;;;;5197493;28;20450;-49
2022/05/26 00:14:25;;;;;;;2.30;2.20;;;15.40;56.70;;;;;;5180482;28;20180;-49
2022/05/26 00:16:56;;;;;;;2.40;2.23;;;15.50;56.80;;;;;;5183647;28;20458;-50
2022/05/26 00:19:26;;;;;;;4.10;2.20;;;15.60;56.40;;;;;;5202826;28;20175;-50
2022/05/26 00:21:57;;;;;;;2.40;2.13;;;15.60;56.20;;;;;;5194747;28;20788;-50
2022/05/26 00:24:27;;;;;;;1.47;1.47;;;15.60;56.20;;;;;;5197505;28;20196;-49
2022/05/26 00:26:58;;;;;;;1.83;1.83;;;15.60;56.00;;;;;;5180570;28;20215;-49
2022/05/26 00:29:28;;;;;;;1.50;1.13;;;15.70;56.00;;;;;;5200197;28;20180;-49
2022/05/26 00:31:59;;;;;;;6.03;1.40;;;15.80;55.40;;;;;;5197471;28;20185;-49
2022/05/26 00:34:29;;;;;;;1.47;1.37;;;15.70;55.60;;;;;;5178091;28;20275;-49
2022/05/26 00:37:00;;;;;;;3.20;1.53;;;15.70;56.10;;;;;;5199792;28;20235;-49
2022/05/26 00:39:30;;;;;;;1.20;1.20;;;15.70;56.00;;;;;;5174497;28;20533;-50
2022/05/26 00:42:04;;;;;;;2.50;1.60;;;15.70;56.00;;;;;;5195871;28;20184;-49
2022/05/26 00:44:35;;;;;;;3.73;2.00;;;15.60;55.90;;;;;;5155113;28;20190;-50
2022/05/26 00:47:11;;;;;;;1.93;1.73;;;15.60;56.50;;;;;;5178498;28;20532;-51
2022/05/26 00:50:11;;;;;;;1.50;1.40;;;15.60;56.30;;;;;;5196612;28;20418;-49
2022/05/26 00:52:52;;;;;;;3.23;2.27;;;15.60;56.30;;;;;;5204121;28;20516;-50
2022/05/26 00:55:31;;;;;;;1.77;1.67;;;15.60;56.40;;;;;;5203965;28;20787;-49
2022/05/26 00:58:14;;;;;;;1.70;1.60;;;15.60;56.40;;;;;;5197375;28;21069;-50
2022/05/26 01:00:46;;;;;;;1.73;1.63;;;15.60;56.20;;;;;;5186416;28;20459;-49
2022/05/26 01:03:31;;;;;;;3.77;2.00;;;15.60;56.20;;;;;;5179550;28;20445;-50
2022/05/26 01:06:19;;;;;;;1.27;1.27;;;15.60;56.00;;;;;;5200463;28;20519;-49
2022/05/26 01:08:57;;;;;;;1.83;1.27;;;15.70;56.10;;;;;;5200353;28;20509;-50
2022/05/26 01:11:32;;;;;;;1.43;1.13;;;15.70;55.70;;;;;;5195023;28;20466;-49
2022/05/26 01:14:12;;;;;;;1.70;1.20;;;15.70;55.50;;;;;;5185889;28;20521;-50
2022/05/26 01:17:12;;;;;;;1.10;1.10;;;15.80;55.30;;;;;;5182588;28;20546;-49
2022/05/26 01:20:01;;;;;;;0.87;0.87;;;15.90;55.30;;;;;;5180054;28;20526;-49
2022/05/26 01:23:20;;;;;;;1.77;1.67;;;16.00;55.10;;;;;;5178483;28;20526;-51
2022/05/26 01:26:19;;;;;;;1.27;1.00;;;16.00;54.80;;;;;;5146106;28;20451;-49
2022/05/26 01:29:10;;;;;;;0.80;0.80;;;16.00;54.50;;;;;;5200318;28;20524;-49
2022/05/26 01:31:52;;;;;;;2.33;1.30;;;16.00;54.40;;;;;;5182371;28;20447;-50
2022/05/26 01:34:42;;;;;;;1.23;1.20;;;16.00;54.40;;;;;;5186796;28;20464;-50
2022/05/26 01:37:42;;;;;;;1.47;1.37;;;16.00;54.80;;;;;;5197506;28;20568;-50
2022/05/26 01:40:31;;;;;;;1.50;1.33;;;16.00;54.40;;;;;;5185175;28;20460;-50
2022/05/26 01:43:23;;;;;;;5.80;1.27;;;15.90;54.70;;;;;;5183849;28;20441;-49
2022/05/26 01:46:13;;;;;;;1.13;1.03;;;16.00;54.90;;;;;;5180372;28;20534;-49
2022/05/26 01:49:06;;;;;;;1.17;1.10;;;16.00;55.50;;;;;;5200406;28;20458;-49
2022/05/26 01:51:56;;;;;;;1.97;1.47;;;16.10;55.30;;;;;;5180759;28;20430;-49
2022/05/26 01:54:42;;;;;;;0.90;0.90;;;16.00;54.90;;;;;;5181342;28;20488;-49
2022/05/26 01:57:33;;;;;;;1.10;1.10;;;16.00;55.10;;;;;;5198860;28;20966;-49
2022/05/26 02:00:12;;;;;;;1.20;1.20;;;15.90;55.30;;;;;;5197767;28;20816;-50
2022/05/26 02:03:08;;;;;;;1.87;1.40;;;15.90;55.40;;;;;;5167591;28;20554;-50
2022/05/26 02:05:47;;;;;;;0.90;0.90;;;15.90;55.40;;;;;;5195229;28;20426;-49
2022/05/26 02:08:32;;;;;;;1.43;1.43;;;15.90;55.50;;;;;;5170601;28;20569;-50
2022/05/26 02:11:11;;;;;;;1.90;1.00;;;15.90;55.40;;;;;;5178587;28;20430;-49
2022/05/26 02:13:55;;;;;;;1.27;1.17;;;15.90;55.50;;;;;;5204450;28;20435;-49
2022/05/26 02:16:31;;;;;;;1.13;1.03;;;15.90;55.60;;;;;;5194201;28;20517;-50
2022/05/26 02:19:15;;;;;;;0.93;0.90;;;15.90;55.50;;;;;;5202614;28;20442;-50
2022/05/26 02:22:06;;;;;;;1.33;0.83;;;15.90;55.50;;;;;;5195022;28;20430;-50
2022/05/26 02:24:41;;;;;;;4.63;0.83;;;16.00;55.50;;;;;;5190088;28;20450;-50
2022/05/26 02:27:12;;;;;;;2.00;1.30;;;16.00;55.20;;;;;;5200679;28;20486;-51
2022/05/26 02:29:51;;;;;;;2.00;1.83;;;16.00;55.20;;;;;;5198385;28;20763;-50
2022/05/26 02:32:27;;;;;;;1.77;1.53;;;15.90;55.20;;;;;;5179093;28;20225;-50
2022/05/26 02:35:01;;;;;;;2.87;2.60;;;16.00;55.10;;;;;;5194642;28;20438;-51
2022/05/26 02:37:32;;;;;;;1.00;1.00;;;16.00;55.10;;;;;;5201365;28;20568;-50
2022/05/26 02:40:05;;;;;;;3.97;1.20;;;16.00;55.20;;;;;;5195099;28;20507;-50
2022/05/26 02:42:43;;;;;;;7.83;1.50;;;16.00;55.20;;;;;;5197838;28;20449;-50
2022/05/26 02:45:17;;;;;;;2.80;1.30;;;16.00;55.60;;;;;;5200990;28;20449;-50
2022/05/26 02:48:12;;;;;;;1.83;1.00;;;16.00;55.70;;;;;;5195501;28;20557;-50
2022/05/26 02:51:08;;;;;;;1.20;1.10;;;15.90;55.50;;;;;;5192800;28;20419;-50
2022/05/26 02:53:48;;;;;;;1.00;0.87;;;15.90;55.40;;;;;;5199800;28;20441;-50
2022/05/26 02:56:48;;;;;;;1.10;1.10;;;16.00;55.50;;;;;;5180037;28;20529;-50
2022/05/26 02:59:41;;;;;;;1.30;1.30;;;16.00;55.50;;;;;;5195852;28;20430;-49
2022/05/26 03:02:28;;;;;;;1.40;1.07;;;16.00;55.40;;;;;;5193691;28;20445;-49
2022/05/26 03:05:09;;;;;;;1.43;1.13;;;16.00;55.40;;;;;;5196647;28;20439;-49
2022/05/26 03:07:43;;;;;;;1.10;1.00;;;16.00;55.70;;;;;;5173414;28;20577;-49
2022/05/26 03:10:15;;;;;;;3.37;0.90;;;16.10;55.80;;;;;;5201896;28;20434;-50
2022/05/26 03:12:46;;;;;;;2.33;1.03;;;16.00;55.70;;;;;;5180033;28;20930;-50
2022/05/26 03:15:16;;;;;;;2.50;1.00;;;16.10;55.70;;;;;;5199208;28;20453;-49
2022/05/26 03:17:47;;;;;;;2.43;1.43;;;16.10;55.60;;;;;;5175593;28;20688;-49
2022/05/26 03:20:18;;;;;;;0.80;0.80;;;16.20;55.80;;;;;;5194210;28;20325;-49
2022/05/26 03:22:49;;;;;;;1.87;0.93;;;16.20;55.90;;;;;;5192823;28;20187;-50
2022/05/26 03:25:20;;;;;;;0.70;0.70;;;16.20;55.60;;;;;;5180828;28;20183;-50
2022/05/26 03:27:50;;;;;;;1.90;1.17;;;16.20;55.60;;;;;;5199568;28;20544;-50
2022/05/26 03:30:21;;;;;;;1.00;1.00;;;16.20;55.80;;;;;;5195122;28;20199;-49
2022/05/26 03:32:52;;;;;;;6.53;1.00;;;16.20;56.00;;;;;;5181263;28;20652;-50
2022/05/26 03:41:00;;;;;;;3.07;0.80;;;16.30;56.20;;;;;;5196888;28;20453;-50
2022/05/26 03:43:42;;;;;;;1.17;0.90;;;16.30;56.20;;;;;;5203225;28;20438;-50
2022/05/26 03:46:13;;;;;;;2.73;1.07;;;16.30;56.30;;;;;;5196069;28;20190;-50
2022/05/26 03:48:43;;;;;;;1.00;1.00;;;16.30;56.30;;;;;;5184740;28;20462;-50
2022/05/26 03:51:14;;;;;;;3.47;1.30;;;16.40;56.30;;;;;;5201313;28;20187;-50
2022/05/26 03:53:44;;;;;;;0.80;0.80;;;16.40;56.30;;;;;;5194472;28;20188;-49
2022/05/26 03:56:15;;;;;;;1.00;1.00;;;16.50;56.30;;;;;;5180141;28;20664;-50
2022/05/26 03:58:45;;;;;;;1.80;0.87;;;16.50;56.00;;;;;;5199605;28;20237;-50
2022/05/26 04:01:16;;;;;;;0.70;0.70;;;16.50;56.10;;;;;;5198291;28;20172;-50
2022/05/26 04:03:46;;;;;;;6.50;5.30;;;16.60;56.00;;;;;;5180570;28;20184;-48
2022/05/26 04:06:17;;;;;;;1.40;1.40;;;16.60;56.00;;;;;;5195003;28;20251;-50
2022/05/26 04:08:48;;;;;;;1.27;1.27;;;16.70;56.00;;;;;;5181489;28;20545;-50
2022/05/26 04:11:19;;;;;;;1.07;0.83;;;16.70;55.80;;;;;;5193737;28;20427;-50
2022/05/26 04:13:51;;;;;;;1.27;1.07;;;16.70;55.80;;;;;;5180456;28;20226;-51
2022/05/26 04:16:22;;;;;;;3.20;0.73;;;16.80;55.80;;;;;;5174294;28;20191;-50
2022/05/26 04:18:53;;;;;;;3.70;0.90;;;16.90;55.90;;;;;;5196181;28;20446;-50
2022/05/26 04:21:23;;;;;;;0.97;0.90;;;16.90;56.40;;;;;;5182578;28;20434;-49
2022/05/26 04:23:54;;;;;;;3.03;0.90;;;17.00;55.80;;;;;;5208304;28;20199;-49
2022/05/26 04:26:24;;;;;;;1.63;1.53;;;17.10;55.60;;;;;;5203003;28;20260;-50
2022/05/26 04:29:13;;;;;;;2.13;1.03;;;17.20;55.50;;;;;;5197169;28;20520;-50
2022/05/26 04:31:44;;;;;;;1.30;1.00;;;17.30;55.40;;;;;;5195554;28;20709;-51
2022/05/26 04:34:14;;;;;;;1.00;1.00;;;17.50;55.50;;;;;;5205181;28;20508;-50
2022/05/26 04:36:46;;;;;;;2.47;1.50;;;17.60;55.40;;;;;;5201330;28;20577;-51
2022/05/26 04:39:16;;;;;;;1.23;1.10;;;17.50;55.50;;;;;;5185466;28;20199;-51
2022/05/26 04:41:47;;;;;;;2.83;0.97;;;17.50;55.80;;;;;;5177926;28;20438;-49
2022/05/26 04:44:19;;;;;;;1.43;1.43;;;17.60;55.70;;;;;;5202735;28;20195;-50
2022/05/26 04:46:50;;;;;;;1.50;1.40;;;17.60;56.00;;;;;;5182704;28;20481;-49
2022/05/26 04:49:20;;;;;;;1.07;1.07;;;17.70;56.10;;;;;;5201421;28;20791;-50
2022/05/26 04:51:51;;;;;;;1.33;1.07;;;17.80;56.20;;;;;;5200071;28;20180;-50
2022/05/26 04:54:22;;;;;;;1.53;1.30;;;17.80;56.40;;;;;;5185136;28;20522;-50
2022/05/26 04:56:59;;;;;;;1.17;1.03;;;17.80;56.30;;;;;;5196623;28;20357;-50
2022/05/26 04:59:30;;;;;;;1.07;1.07;;;18.20;55.80;;;;;;5189065;28;20547;-50
2022/05/26 05:02:01;;;;;;;2.20;1.07;;;18.50;55.10;;;;;;5185598;28;20463;-50
2022/05/26 05:04:32;;;;;;;3.50;1.23;;;18.80;54.90;;;;;;5174374;28;20446;-50
2022/05/26 05:07:03;;;;;;;1.10;1.10;;;19.00;54.40;;;;;;5197659;28;20943;-49
2022/05/26 05:09:33;;;;;;;1.43;1.10;;;19.10;54.20;;;;;;5173302;28;20186;-50
2022/05/26 05:12:05;;;;;;;2.73;1.30;;;19.20;54.50;;;;;;5200685;28;20179;-49
2022/05/26 05:14:43;;;;;;;4.90;1.03;;;19.50;53.70;;;;;;5198637;28;20183;-50
2022/05/26 05:17:16;;;;;;;2.70;1.60;;;19.90;53.10;;;;;;5199382;28;20531;-49
2022/05/26 05:19:48;;;;;;;2.20;1.33;;;19.70;52.90;;;;;;5192565;28;20430;-49
2022/05/26 05:22:27;;;;;;;4.40;1.40;;;20.10;53.30;;;;;;5200835;28;20438;-50
2022/05/26 05:25:08;;;;;;;1.47;1.30;;;21.20;51.60;;;;;;5174605;28;20462;-50
2022/05/26 05:27:47;;;;;;;0.90;0.90;;;23.30;48.40;;;;;;5191399;28;20502;-52
2022/05/26 05:30:26;;;;;;;1.60;1.30;;;24.20;46.30;;;;;;5180718;28;20739;-50
2022/05/26 05:33:06;;;;;;;1.47;1.37;;;25.40;43.90;;;;;;5196115;28;20447;-51
2022/05/26 05:35:46;;;;;;;3.50;1.20;;;26.90;40.70;;;;;;5179519;28;20444;-50
2022/05/26 05:38:17;;;;;;;1.90;1.80;;;28.10;38.30;;;;;;5235763;22;21012;-53
2022/05/26 05:40:48;;;;;;;0.87;0.87;;;28.70;36.70;;;;;;5235101;28;20479;-51
2022/05/26 05:43:19;;;;;;;1.70;1.10;;;29.40;36.30;;;;;;5225386;28;20993;-53
2022/05/26 05:45:49;;;;;;;1.63;1.43;;;29.90;35.30;;;;;;5220223;28;20179;-52
2022/05/26 05:48:21;;;;;;;4.37;1.13;;;30.40;34.40;;;;;;5206761;28;20589;-52
2022/05/26 05:50:52;;;;;;;8.10;1.80;;;28.80;35.00;;;;;;5198835;28;20176;-51
2022/05/26 05:53:22;;;;;;;8.93;1.20;;;27.30;37.50;;;;;;5205727;28;20443;-51
2022/05/26 05:55:53;;;;;;;2.80;1.47;;;25.60;40.40;;;;;;5191418;28;20202;-53
2022/05/26 05:58:23;;;;;;;1.87;1.23;;;23.90;43.20;;;;;;5199080;28;20262;-51
2022/05/26 06:00:54;;;;;;;1.17;1.07;;;22.90;44.80;;;;;;5203651;28;20673;-52
2022/05/26 06:03:34;;;;;;;1.70;1.13;;;21.80;46.80;;;;;;5200999;28;20182;-51
2022/05/26 06:06:09;;;;;;;14.63;1.60;;;21.20;48.50;;;;;;5194805;28;20434;-51
2022/05/26 06:08:40;;;;;;;3.80;1.70;;;20.20;50.30;;;;;;5180064;28;20457;-52
2022/05/26 06:11:10;;;;;;;6.43;1.20;;;19.60;51.80;;;;;;5201878;28;20485;-52
2022/05/26 06:13:41;;;;;;;1.57;1.47;;;19.40;52.90;;;;;;5199139;28;20172;-52
2022/05/26 06:16:13;;;;;;;2.17;2.07;;;19.20;53.70;;;;;;5190931;28;20183;-51
2022/05/26 06:18:43;;;;;;;3.10;1.80;;;18.70;55.10;;;;;;5197302;28;20516;-52
2022/05/26 06:21:14;;;;;;;1.27;1.27;;;18.60;56.10;;;;;;5202031;28;20451;-52
2022/05/26 06:23:44;;;;;;;1.33;1.17;;;18.60;56.40;;;;;;5201313;28;20279;-50
2022/05/26 06:26:15;;;;;;;1.70;1.60;;;18.60;56.70;;;;;;5196803;28;20176;-51
2022/05/26 06:31:34;;;;;;;1.80;1.70;;;18.50;57.40;;;;;;5195755;28;20194;-51
2022/05/26 06:39:44;;;;;;;2.57;2.40;;;18.40;59.00;;;;;;5200415;28;20572;-53
2022/05/26 06:42:15;;;;;;;3.53;1.70;;;18.30;59.50;;;;;;5203645;28;20443;-53
2022/05/26 06:44:45;;;;;;;3.17;1.90;;;18.20;60.00;;;;;;5206886;28;20434;-52
2022/05/26 06:47:19;;;;;;;4.43;2.70;;;18.10;60.80;;;;;;5194783;28;20223;-53
2022/05/26 06:49:50;;;;;;;7.67;2.60;;;18.00;61.80;;;;;;5202240;28;20242;-51
2022/05/26 06:52:23;;;;;;;2.20;2.10;;;17.90;62.60;;;;;;5200924;28;20541;-52
2022/05/26 06:54:54;;;;;;;2.30;2.10;;;17.70;64.00;;;;;;5198169;28;20226;-51
2022/05/26 06:57:24;;;;;;;2.10;2.00;;;17.70;64.90;;;;;;5201028;28;20489;-51
2022/05/26 06:59:55;;;;;;;5.03;1.50;;;17.70;65.10;;;;;;5197611;28;20481;-51
2022/05/26 07:02:26;;;;;;;2.27;2.10;;;17.70;65.90;;;;;;5200916;28;20663;-52
2022/05/26 07:04:56;;;;;;;3.60;2.23;;;17.60;66.90;;;;;;5199191;28;20210;-51
2022/05/26 07:07:27;;;;;;;2.07;1.80;;;17.50;69.30;;;;;;5198311;28;20470;-52
2022/05/26 07:09:58;;;;;;;2.73;2.40;;;17.50;71.90;;;;;;5197726;28;20183;-53
2022/05/26 07:12:28;;;;;;;2.70;2.40;;;17.30;78.00;;;;;;5187469;28;20532;-51
2022/05/26 07:14:59;;;;;;;3.03;2.57;;;17.10;89.80;;;;;;5188252;28;20202;-52
2022/05/26 07:17:30;;;;;;;3.20;2.90;;;17.00;95.90;;;;;;5194535;28;20289;-53
2022/05/26 07:20:01;;;;;;;3.90;3.60;;;16.60;99.90;;;;;;5200094;28;20327;-52
2022/05/26 07:22:31;;;;;;;7.90;3.60;;;16.20;99.90;;;;;;5203698;28;20302;-51
2022/05/26 07:25:03;;;;;;;9.93;3.53;;;15.90;99.90;;;;;;5199539;28;20191;-52
2022/05/26 07:27:34;;;;;;;3.57;3.37;;;15.60;99.90;;;;;;5200910;28;20306;-50
2022/05/26 07:30:06;;;;;;;3.93;3.73;;;15.50;99.90;;;;;;5203405;28;20764;-52
2022/05/26 07:32:36;;;;;;;7.30;3.90;;;15.30;99.90;;;;;;5197511;28;20176;-50
2022/05/26 07:35:07;;;;;;;6.07;4.93;;;15.10;99.90;;;;;;5200778;28;20785;-52
2022/05/26 07:43:20;;;;;;;5.10;4.70;;;14.70;99.90;;;;;;5203508;28;20508;-51
2022/05/26 07:45:52;;;;;;;4.27;3.97;;;14.80;99.90;;;;;;5203100;28;20458;-52
2022/05/26 07:48:23;;;;;;;4.90;4.50;;;14.90;99.90;;;;;;5201237;28;20488;-52
2022/05/26 07:50:53;;;;;;;6.03;3.97;;;15.10;99.90;;;;;;5203550;28;20183;-52
2022/05/26 07:53:24;;;;;;;5.40;4.73;;;15.20;99.90;;;;;;5203314;28;20648;-52
2022/05/26 07:55:54;;;;;;;5.50;5.20;;;15.50;99.90;;;;;;5197809;28;20270;-52
2022/05/26 07:58:25;;;;;;;5.53;4.80;;;15.80;99.90;;;;;;5200233;28;20203;-52
2022/05/26 08:00:56;;;;;;;4.90;4.40;;;16.00;99.90;;;;;;5191340;28;20188;-51
2022/05/26 08:03:26;;;;;;;9.77;4.97;;;16.40;99.90;;;;;;5190964;28;20529;-51
2022/05/26 08:05:57;;;;;;;4.63;4.27;;;16.70;99.90;;;;;;5196702;28;20262;-52
2022/05/26 08:08:31;;;;;;;4.40;4.10;;;17.00;99.90;;;;;;5196175;28;20219;-51
2022/05/26 08:11:02;;;;;;;5.00;4.50;;;17.40;99.90;;;;;;5197968;28;20192;-52
2022/05/26 08:13:33;;;;;;;4.53;3.83;;;17.70;99.90;;;;;;5202739;28;20438;-51
2022/05/26 08:16:05;;;;;;;3.40;3.10;;;18.00;99.90;;;;;;5205338;28;20445;-52
2022/05/26 08:18:36;;;;;;;3.20;3.00;;;18.60;99.90;;;;;;5196967;28;20208;-51
2022/05/26 08:21:12;;;;;;;3.20;2.90;;;19.00;99.90;;;;;;5195838;28;21083;-52
2022/05/26 08:23:43;;;;;;;2.30;2.20;;;19.70;99.90;;;;;;5200755;28;20761;-53
2022/05/26 08:26:14;;;;;;;1.57;1.53;;;20.60;99.90;;;;;;5195251;28;20465;-52
2022/05/26 08:28:45;;;;;;;1.97;1.97;;;21.60;99.90;;;;;;5205959;28;20341;-52
2022/05/26 08:31:15;;;;;;;1.93;1.83;;;22.40;93.60;;;;;;5200104;28;20551;-52
2022/05/26 08:33:46;;;;;;;3.00;1.90;;;23.20;82.00;;;;;;5202961;28;20562;-54
2022/05/26 08:36:24;;;;;;;1.63;1.53;;;24.00;74.10;;;;;;5203335;28;20278;-53
2022/05/26 08:38:55;;;;;;;1.90;1.50;;;24.70;66.50;;;;;;5201069;28;20215;-52
2022/05/26 08:41:35;;;;;;;2.07;1.90;;;24.80;62.70;;;;;;5199991;28;20449;-52
2022/05/26 08:44:20;;;;;;;1.47;1.43;;;24.80;61.10;;;;;;5216671;28;20485;-52
2022/05/26 08:46:55;;;;;;;2.97;1.30;;;25.20;59.00;;;;;;5191340;28;20596;-53
2022/05/26 08:49:29;;;;;;;3.00;1.80;;;25.00;58.50;;;;;;5195484;28;20445;-53
2022/05/26 08:52:14;;;;;;;3.07;1.23;;;23.80;59.50;;;;;;5202534;28;20438;-52
2022/05/26 08:54:54;;;;;;;1.30;1.30;;;23.10;60.00;;;;;;5200024;28;20480;-52
2022/05/26 08:57:31;;;;;;;1.10;1.10;;;22.60;61.10;;;;;;5196283;28;20489;-54
2022/05/26 09:00:04;;;;;;;1.43;1.33;;;21.90;60.60;;;;;;5196343;28;20446;-52
2022/05/26 09:02:37;;;;;;;0.80;0.60;;;21.40;61.90;;;;;;5199225;28;20820;-53
2022/05/26 09:05:14;;;;;;;1.13;1.13;;;21.00;62.90;;;;;;5193813;28;20447;-52
2022/05/26 09:13:45;;;;;;;0.80;0.80;;;20.70;63.80;;;;;;5203244;28;20426;-52
2022/05/26 09:16:15;;;;;;;5.03;2.17;;;21.10;62.90;;;;;;5202149;28;20434;-54
2022/05/26 09:19:13;;;;;;;3.70;0.90;;;21.70;62.40;;;;;;5198241;28;20679;-52
2022/05/26 09:21:46;;;;;;;1.30;1.23;;;22.00;59.10;;;;;;5196365;28;20171;-54
2022/05/26 09:24:39;;;;;;;4.00;1.43;;;21.90;59.40;;;;;;5206581;28;20442;-52
2022/05/26 09:27:27;;;;;;;3.20;3.00;;;22.00;60.40;;;;;;5202649;28;20501;-52
2022/05/26 09:30:26;;;;;;;1.00;1.00;;;22.40;58.90;;;;;;5197662;28;20512;-52
2022/05/26 09:32:57;;;;;;;1.20;1.10;;;22.00;56.80;;;;;;5207741;28;20437;-52
2022/05/26 09:35:31;;;;;;;1.73;1.63;;;21.40;57.60;;;;;;5204205;28;20458;-52
2022/05/26 09:38:05;;;;;;;0.80;0.80;;;20.80;59.60;;;;;;5198508;28;20480;-51
2022/05/26 09:40:38;;;;;;;1.27;1.07;;;20.30;60.30;;;;;;5203454;28;20441;-53
2022/05/26 09:43:26;;;;;;;1.10;0.90;;;20.00;62.50;;;;;;5203755;28;20934;-53
2022/05/26 09:46:01;;;;;;;6.33;4.90;;;19.60;63.60;;;;;;5201918;28;20523;-52
2022/05/26 09:48:36;;;;;;;2.80;2.13;;;19.20;65.90;;;;;;5200726;28;20470;-52
2022/05/26 09:51:30;;;;;;;1.23;1.23;;;19.10;67.40;;;;;;5199268;28;20470;-52
2022/05/26 09:54:26;;;;;;;3.60;1.87;;;19.00;68.80;;;;;;5207002;28;20803;-52
2022/05/26 09:56:57;;;;;;;1.27;1.27;;;19.10;70.10;;;;;;5198402;28;20438;-53
2022/05/26 09:59:39;;;;;;;2.43;1.10;;;19.40;68.50;;;;;;5204720;28;20445;-54
2022/05/26 10:02:28;;;;;;;3.73;1.40;;;19.60;66.80;;;;;;5202557;28;20501;-52
2022/05/26 10:05:28;;;;;;;1.80;1.70;;;20.00;65.40;;;;;;5195961;28;20928;-52
2022/05/26 10:08:18;;;;;;;6.13;2.43;;;20.00;63.50;;;;;;5198438;28;20504;-53
2022/05/26 10:11:33;;;;;;;1.63;1.53;;;20.00;64.20;;;;;;5203522;28;20554;-57
2022/05/26 10:14:27;;;;;;;4.73;1.53;;;20.10;63.50;;;;;;5140672;28;20477;-55
2022/05/26 10:17:23;;;;;;;1.60;1.50;;;19.80;63.90;;;;;;5140131;28;20785;-53
2022/05/26 10:20:04;;;;;;;1.23;1.13;;;19.30;64.10;;;;;;5195297;28;20451;-55
2022/05/26 10:23:02;;;;;;;2.33;1.03;;;19.20;65.60;;;;;;5203322;28;20756;-55
2022/05/26 10:26:04;;;;;;;4.37;1.80;;;19.10;66.40;;;;;;5196813;28;20525;-56
2022/05/26 10:29:07;;;;;;;2.33;2.10;;;19.00;67.40;;;;;;5168421;28;20511;-53
2022/05/26 10:31:50;;;;;;;2.20;1.70;;;18.80;68.00;;;;;;5200726;28;20437;-56
2022/05/26 10:35:06;;;;;;;2.07;1.50;;;18.70;68.80;;;;;;5189052;28;20984;-53
2022/05/26 10:38:17;;;;;;;2.83;1.80;;;18.80;69.10;;;;;;5187013;28;20477;-54
2022/05/26 10:40:54;;;;;;;1.40;1.30;;;18.90;68.00;;;;;;5196299;28;20435;-53
2022/05/26 10:43:37;;;;;;;1.77;1.67;;;19.10;67.70;;;;;;5205033;28;20910;-55
2022/05/26 10:46:09;;;;;;;2.47;1.50;;;19.30;67.40;;;;;;5200366;28;20488;-53
2022/05/26 10:48:59;;;;;;;1.60;1.50;;;19.50;66.00;;;;;;5199183;28;20561;-58
2022/05/26 10:51:36;;;;;;;1.47;1.47;;;19.40;64.20;;;;;;5200667;28;20446;-56
2022/05/26 10:54:14;;;;;;;2.93;2.20;;;19.40;64.60;;;;;;5204087;28;20446;-54
2022/05/26 10:57:11;;;;;;;15.37;8.40;;;19.50;63.80;;;;;;5198683;28;20431;-54
2022/05/26 11:00:06;;;;;;;3.97;2.30;;;19.90;63.30;;;;;;5197937;28;20442;-55
2022/05/26 11:03:02;;;;;;;2.37;1.67;;;20.60;60.90;;;;;;5206801;28;20501;-55
2022/05/26 11:05:48;;;;;;;6.43;4.10;;;20.60;59.90;;;;;;5206235;28;20446;-55
2022/05/26 11:08:31;;;;;;;3.43;2.73;;;20.70;59.60;;;;;;5194037;28;20578;-57
2022/05/26 11:11:11;;;;;;;1.87;1.77;;;20.90;60.10;;;;;;5196961;28;20466;-55
2022/05/26 11:13:53;;;;;;;2.57;1.73;;;21.10;58.00;;;;;;5198583;28;20422;-54
2022/05/26 11:20:04;;;;;;;5.23;2.47;;;21.30;57.50;;;;;;5196397;28;20418;-54
2022/05/26 11:22:34;;;;;;;3.33;2.03;;;21.60;56.70;;;;;;5182441;28;20442;-54
2022/05/26 11:25:05;;;;;;;5.10;1.73;;;22.00;56.50;;;;;;5200275;28;20469;-55
2022/05/26 11:28:00;;;;;;;6.03;1.80;;;22.20;55.70;;;;;;5200492;28;20216;-57
2022/05/26 11:36:49;;;;;;;1.93;1.90;;;21.80;55.00;;;;;;5202321;28;20415;-58
2022/05/26 11:39:35;;;;;;;7.40;4.30;;;21.70;55.00;;;;;;5229595;22;20506;-54
2022/05/26 11:42:09;;;;;;;9.50;3.50;;;21.60;55.00;;;;;;5218690;28;20444;-53
2022/05/26 11:44:42;;;;;;;2.43;1.47;;;21.60;55.10;;;;;;5204499;28;20983;-52
2022/05/26 11:47:33;;;;;;;4.27;1.53;;;21.60;54.40;;;;;;5219455;28;20546;-52
2022/05/26 11:50:22;;;;;;;1.97;1.77;;;21.40;53.80;;;;;;5217516;28;20439;-51
2022/05/26 11:52:52;;;;;;;4.70;2.10;;;20.90;55.20;;;;;;5211567;28;20442;-53
2022/05/26 11:55:50;;;;;;;6.73;2.40;;;20.50;56.10;;;;;;5199512;28;20420;-51
2022/05/26 11:58:44;;;;;;;12.33;6.53;;;20.10;57.10;;;;;;5196787;28;20565;-54
2022/05/26 12:01:23;;;;;;;3.50;2.10;;;19.70;58.10;;;;;;5186864;28;20446;-51
2022/05/26 12:03:54;;;;;;;2.83;1.90;;;19.70;57.60;;;;;;5194334;28;20438;-52
2022/05/26 12:06:53;;;;;;;6.33;1.90;;;20.10;57.60;;;;;;5197534;28;20430;-55
2022/05/26 12:09:48;;;;;;;1.30;1.20;;;20.50;56.10;;;;;;5206003;28;20309;-51
2022/05/26 12:12:21;;;;;;;8.07;1.57;;;20.70;54.50;;;;;;5194138;28;20434;-51
2022/05/26 12:14:55;;;;;;;2.80;1.43;;;20.60;54.00;;;;;;5197132;28;20487;-52
2022/05/26 12:17:49;;;;;;;3.20;2.00;;;20.40;54.00;;;;;;5204662;28;20840;-51
2022/05/26 12:20:19;;;;;;;2.73;1.60;;;20.40;54.60;;;;;;5202179;28;20456;-51
2022/05/26 12:22:50;;;;;;;1.47;1.40;;;20.60;54.20;;;;;;5199040;28;20438;-52
2022/05/26 12:25:24;;;;;;;17.33;2.43;;;20.80;54.10;;;;;;5199444;28;20199;-53
2022/05/26 12:28:28;;;;;;;3.10;1.77;;;21.20;53.40;;;;;;5202984;28;20554;-52
2022/05/26 12:30:58;;;;;;;3.20;1.63;;;21.10;51.50;;;;;;5185139;28;20443;-52
2022/05/26 12:34:02;;;;;;;1.93;1.83;;;21.00;51.60;;;;;;5195484;28;20514;-53
2022/05/26 12:36:43;;;;;;;10.40;1.83;;;21.20;52.20;;;;;;5209217;28;20274;-57
2022/05/26 12:39:47;;;;;;;2.30;1.47;;;21.60;51.70;;;;;;5197860;28;20873;-55
2022/05/26 12:42:46;;;;;;;15.17;3.53;;;22.00;50.80;;;;;;5203073;28;20446;-53
2022/05/26 12:45:37;;;;;;;8.40;2.43;;;22.20;46.80;;;;;;5199485;28;20426;-54
2022/05/26 12:48:41;;;;;;;3.90;2.60;;;22.00;45.50;;;;;;5217244;28;20488;-53
2022/05/26 12:51:13;;;;;;;2.13;1.80;;;22.00;47.10;;;;;;5200291;28;20442;-52
2022/05/26 12:53:52;;;;;;;6.80;2.87;;;22.00;47.70;;;;;;5203748;28;20453;-53
2022/05/26 12:56:39;;;;;;;11.20;5.87;;;21.90;48.00;;;;;;5202848;28;20511;-51
2022/05/26 12:59:14;;;;;;;4.90;2.20;;;21.80;46.90;;;;;;5203610;28;20450;-53
2022/05/26 13:01:48;;;;;;;4.33;2.43;;;21.90;48.00;;;;;;5196644;28;20437;-52
2022/05/26 13:04:23;;;;;;;6.23;2.97;;;21.90;48.10;;;;;;5206282;28;20430;-53
2022/05/26 13:06:54;;;;;;;4.13;3.77;;;21.80;48.70;;;;;;5202235;28;20461;-53
2022/05/26 13:09:44;;;;;;;4.50;3.57;;;21.70;49.20;;;;;;5200373;28;20466;-55
2022/05/26 13:12:25;;;;;;;6.20;3.93;;;21.40;49.50;;;;;;5194941;28;20587;-52
2022/05/26 13:14:59;;;;;;;9.50;3.77;;;20.90;50.10;;;;;;5202025;28;21009;-54
2022/05/26 13:17:30;;;;;;;16.20;2.30;;;20.60;50.30;;;;;;5202507;28;20579;-53
2022/05/26 13:20:04;;;;;;;7.80;2.97;;;20.30;50.70;;;;;;5202758;28;20633;-51
2022/05/26 13:22:37;;;;;;;8.10;3.20;;;20.10;50.40;;;;;;5219509;28;20207;-51
2022/05/26 13:25:15;;;;;;;3.83;2.90;;;20.10;50.30;;;;;;5201326;28;20488;-54
2022/05/26 13:27:52;;;;;;;2.00;1.90;;;20.20;50.70;;;;;;5201722;28;20471;-52
2022/05/26 13:33:24;;;;;;;3.40;2.90;;;20.50;48.50;;;;;;5195835;28;20433;-51
2022/05/26 13:35:59;;;;;;;5.30;3.10;;;20.70;49.20;;;;;;5198859;28;20453;-51
2022/05/26 13:38:36;;;;;;;8.80;5.50;;;20.60;49.20;;;;;;5199193;28;21071;-56
2022/05/26 13:41:10;;;;;;;7.20;3.70;;;20.50;48.50;;;;;;5197636;28;20437;-51
2022/05/26 13:43:44;;;;;;;7.03;5.47;;;20.50;48.20;;;;;;5198087;28;20480;-51
2022/05/26 13:46:38;;;;;;;4.60;2.63;;;20.70;47.90;;;;;;5203213;28;20957;-52
2022/05/26 13:49:23;;;;;;;9.70;3.90;;;20.90;46.00;;;;;;5198770;28;20471;-52
2022/05/26 13:51:55;;;;;;;4.90;3.33;;;21.10;45.20;;;;;;5218250;28;20430;-50
2022/05/26 13:54:43;;;;;;;6.97;5.13;;;21.20;44.50;;;;;;5195185;28;21302;-57
2022/05/26 13:57:30;;;;;;;5.30;2.93;;;21.50;44.60;;;;;;5199275;28;20442;-57
2022/05/26 14:00:06;;;;;;;9.80;3.97;;;21.70;43.90;;;;;;5211403;28;20442;-53
2022/05/26 14:02:36;;;;;;;10.03;5.80;;;21.40;44.60;;;;;;5199030;28;20442;-55
2022/05/26 14:05:13;;;;;;;17.50;4.33;;;21.30;44.70;;;;;;5204360;28;20458;-52
2022/05/26 14:07:58;;;;;;;5.80;3.00;;;21.20;45.10;;;;;;5200224;28;20318;-51
2022/05/26 14:10:52;;;;;;;8.67;5.23;;;21.00;45.20;;;;;;5198461;28;20914;-55
2022/05/26 14:13:27;;;;;;;12.97;7.57;;;20.80;45.40;;;;;;5198666;28;20434;-53
2022/05/26 14:16:07;;;;;;;3.53;3.10;;;20.80;45.30;;;;;;5191595;28;20437;-52
2022/05/26 14:18:42;;;;;;;2.13;2.03;;;21.00;45.90;;;;;;5199195;28;21835;-59
2022/05/26 14:21:12;;;;;;;4.70;3.40;;;21.10;45.50;;;;;;5214879;28;20631;-52